sensor_id;sensor_type;location;lat;lon;timestamp;P1;durP1;ratioP1;P2;durP2;ratioP2
23490;SDS011;14683;50.038;8.078;2024-01-30T02:54:30;37.10;;;21.50;;
23490;SDS011;14683;50.038;8.078;2024-01-30T02:57:32;33.33;;;21.98;;
23490;SDS011;14683;50.038;8.078;2024-01-30T03:00:33;30.92;;;21.38;;
23490;SDS011;14683;50.038;8.078;2024-01-30T03:03:35;33.25;;;23.20;;
23490;SDS011;14683;50.038;8.078;2024-01-30T03:06:36;29.50;;;20.52;;
23490;SDS011;14683;50.038;8.078;2024-01-30T03:09:37;31.08;;;21.77;;
23490;SDS011;14683;50.038;8.078;2024-01-30T03:12:39;28.30;;;20.75;;
23490;SDS011;14683;50.038;8.078;2024-01-30T03:15:40;30.65;;;21.40;;
23490;SDS011;14683;50.038;8.078;2024-01-30T03:18:41;32.38;;;20.52;;
23490;SDS011;14683;50.038;8.078;2024-01-30T03:21:42;32.72;;;21.80;;
23490;SDS011;14683;50.038;8.078;2024-01-30T03:24:43;29.98;;;18.85;;
23490;SDS011;14683;50.038;8.078;2024-01-30T03:27:44;27.73;;;19.25;;
23490;SDS011;14683;50.038;8.078;2024-01-30T03:30:46;30.33;;;20.35;;
23490;SDS011;14683;50.038;8.078;2024-01-30T03:33:47;23.98;;;17.65;;
23490;SDS011;14683;50.038;8.078;2024-01-30T03:36:48;24.88;;;19.05;;
23490;SDS011;14683;50.038;8.078;2024-01-30T03:39:49;27.98;;;18.92;;
23490;SDS011;14683;50.038;8.078;2024-01-30T03:42:50;25.20;;;18.70;;
23490;SDS011;14683;50.038;8.078;2024-01-30T03:45:51;26.35;;;18.90;;
23490;SDS011;14683;50.038;8.078;2024-01-30T03:48:53;26.15;;;18.98;;
23490;SDS011;14683;50.038;8.078;2024-01-30T03:51:54;30.02;;;19.30;;
23490;SDS011;14683;50.038;8.078;2024-01-30T03:54:55;30.38;;;19.73;;
23490;SDS011;14683;50.038;8.078;2024-01-30T03:57:56;29.30;;;19.52;;
23490;SDS011;14683;50.038;8.078;2024-01-30T04:00:57;28.98;;;19.20;;
23490;SDS011;14683;50.038;8.078;2024-01-30T04:03:58;27.13;;;19.52;;
23490;SDS011;14683;50.038;8.078;2024-01-30T04:06:59;27.17;;;18.63;;
23490;SDS011;14683;50.038;8.078;2024-01-30T04:10:00;26.45;;;19.48;;
23490;SDS011;14683;50.038;8.078;2024-01-30T04:13:02;29.13;;;19.38;;
23490;SDS011;14683;50.038;8.078;2024-01-30T04:16:03;24.73;;;18.85;;
23490;SDS011;14683;50.038;8.078;2024-01-30T04:19:04;25.42;;;18.55;;
23490;SDS011;14683;50.038;8.078;2024-01-30T04:22:05;27.90;;;19.55;;
23490;SDS011;14683;50.038;8.078;2024-01-30T04:25:07;29.95;;;19.98;;
23490;SDS011;14683;50.038;8.078;2024-01-30T04:28:08;27.85;;;20.35;;
23490;SDS011;14683;50.038;8.078;2024-01-30T04:31:09;25.65;;;18.90;;
23490;SDS011;14683;50.038;8.078;2024-01-30T04:34:10;26.63;;;18.73;;
23490;SDS011;14683;50.038;8.078;2024-01-30T04:37:11;26.00;;;18.95;;
23490;SDS011;14683;50.038;8.078;2024-01-30T04:40:12;25.00;;;18.63;;
23490;SDS011;14683;50.038;8.078;2024-01-30T04:43:14;29.52;;;19.38;;
23490;SDS011;14683;50.038;8.078;2024-01-30T04:46:16;24.83;;;18.80;;
23490;SDS011;14683;50.038;8.078;2024-01-30T04:49:17;26.95;;;17.80;;
23490;SDS011;14683;50.038;8.078;2024-01-30T04:52:18;24.05;;;18.45;;
23490;SDS011;14683;50.038;8.078;2024-01-30T04:55:19;27.88;;;19.05;;
23490;SDS011;14683;50.038;8.078;2024-01-30T04:58:20;25.13;;;17.83;;
23490;SDS011;14683;50.038;8.078;2024-01-30T05:01:22;26.83;;;19.02;;
23490;SDS011;14683;50.038;8.078;2024-01-30T05:04:23;26.60;;;19.15;;
23490;SDS011;14683;50.038;8.078;2024-01-30T05:07:24;23.92;;;18.20;;
23490;SDS011;14683;50.038;8.078;2024-01-30T05:10:26;28.88;;;19.65;;
23490;SDS011;14683;50.038;8.078;2024-01-30T05:13:30;24.00;;;18.35;;
23490;SDS011;14683;50.038;8.078;2024-01-30T05:16:31;28.63;;;18.35;;
23490;SDS011;14683;50.038;8.078;2024-01-30T05:19:33;29.15;;;18.77;;
23490;SDS011;14683;50.038;8.078;2024-01-30T05:22:34;26.33;;;19.48;;
23490;SDS011;14683;50.038;8.078;2024-01-30T05:25:35;29.75;;;19.35;;
23490;SDS011;14683;50.038;8.078;2024-01-30T05:28:36;28.98;;;18.92;;
23490;SDS011;14683;50.038;8.078;2024-01-30T05:31:37;26.92;;;18.27;;
23490;SDS011;14683;50.038;8.078;2024-01-30T05:34:38;25.30;;;18.30;;
23490;SDS011;14683;50.038;8.078;2024-01-30T05:37:39;26.25;;;18.75;;
23490;SDS011;14683;50.038;8.078;2024-01-30T05:40:40;31.73;;;20.05;;
23490;SDS011;14683;50.038;8.078;2024-01-30T05:43:42;28.02;;;19.98;;
23490;SDS011;14683;50.038;8.078;2024-01-30T05:46:46;30.73;;;20.17;;
23490;SDS011;14683;50.038;8.078;2024-01-30T05:49:47;27.65;;;20.13;;
23490;SDS011;14683;50.038;8.078;2024-01-30T05:52:48;29.75;;;20.00;;
23490;SDS011;14683;50.038;8.078;2024-01-30T05:55:49;27.77;;;19.67;;
23490;SDS011;14683;50.038;8.078;2024-01-30T05:58:50;31.15;;;20.48;;
23490;SDS011;14683;50.038;8.078;2024-01-30T06:01:51;31.92;;;20.95;;
23490;SDS011;14683;50.038;8.078;2024-01-30T06:04:52;28.27;;;20.17;;
23490;SDS011;14683;50.038;8.078;2024-01-30T06:07:54;30.88;;;20.95;;
23490;SDS011;14683;50.038;8.078;2024-01-30T06:10:55;30.05;;;20.88;;
23490;SDS011;14683;50.038;8.078;2024-01-30T06:13:56;28.20;;;21.08;;
23490;SDS011;14683;50.038;8.078;2024-01-30T06:16:57;29.85;;;19.83;;
23490;SDS011;14683;50.038;8.078;2024-01-30T06:19:58;29.05;;;20.52;;
23490;SDS011;14683;50.038;8.078;2024-01-30T06:23:00;35.45;;;23.27;;
23490;SDS011;14683;50.038;8.078;2024-01-30T06:26:01;37.00;;;25.50;;
23490;SDS011;14683;50.038;8.078;2024-01-30T06:29:02;38.08;;;25.13;;
23490;SDS011;14683;50.038;8.078;2024-01-30T06:32:03;39.83;;;26.08;;
23490;SDS011;14683;50.038;8.078;2024-01-30T06:35:05;38.20;;;26.17;;
23490;SDS011;14683;50.038;8.078;2024-01-30T06:38:06;33.60;;;23.40;;
23490;SDS011;14683;50.038;8.078;2024-01-30T06:41:08;34.22;;;22.35;;
23490;SDS011;14683;50.038;8.078;2024-01-30T06:44:09;31.98;;;19.60;;
23490;SDS011;14683;50.038;8.078;2024-01-30T06:47:10;31.60;;;21.08;;
23490;SDS011;14683;50.038;8.078;2024-01-30T06:50:11;31.00;;;19.50;;
23490;SDS011;14683;50.038;8.078;2024-01-30T06:53:12;30.13;;;20.58;;
23490;SDS011;14683;50.038;8.078;2024-01-30T06:56:13;28.00;;;19.50;;
23490;SDS011;14683;50.038;8.078;2024-01-30T06:59:15;31.80;;;19.73;;
23490;SDS011;14683;50.038;8.078;2024-01-30T07:02:16;31.38;;;19.75;;
23490;SDS011;14683;50.038;8.078;2024-01-30T07:05:17;29.38;;;20.95;;
23490;SDS011;14683;50.038;8.078;2024-01-30T07:08:18;29.90;;;19.70;;
23490;SDS011;14683;50.038;8.078;2024-01-30T07:11:19;29.65;;;19.52;;
23490;SDS011;14683;50.038;8.078;2024-01-30T07:14:24;33.10;;;20.13;;
23490;SDS011;14683;50.038;8.078;2024-01-30T07:17:26;31.38;;;19.85;;
23490;SDS011;14683;50.038;8.078;2024-01-30T07:20:27;31.75;;;20.35;;
23490;SDS011;14683;50.038;8.078;2024-01-30T07:23:28;39.90;;;23.67;;
23490;SDS011;14683;50.038;8.078;2024-01-30T07:26:30;46.97;;;26.60;;
23490;SDS011;14683;50.038;8.078;2024-01-30T07:29:31;43.40;;;25.90;;
23490;SDS011;14683;50.038;8.078;2024-01-30T07:32:33;41.13;;;25.20;;
23490;SDS011;14683;50.038;8.078;2024-01-30T07:35:34;43.10;;;24.52;;
23490;SDS011;14683;50.038;8.078;2024-01-30T07:38:35;45.42;;;25.88;;
23490;SDS011;14683;50.038;8.078;2024-01-30T07:41:37;48.08;;;27.40;;
23490;SDS011;14683;50.038;8.078;2024-01-30T07:44:38;48.53;;;27.35;;
23490;SDS011;14683;50.038;8.078;2024-01-30T07:47:39;46.92;;;27.30;;
23490;SDS011;14683;50.038;8.078;2024-01-30T07:50:40;45.70;;;26.35;;
23490;SDS011;14683;50.038;8.078;2024-01-30T07:53:41;47.90;;;25.48;;
23490;SDS011;14683;50.038;8.078;2024-01-30T07:56:42;49.88;;;27.15;;
23490;SDS011;14683;50.038;8.078;2024-01-30T07:59:44;42.33;;;26.38;;
23490;SDS011;14683;50.038;8.078;2024-01-30T08:02:45;46.33;;;27.50;;
23490;SDS011;14683;50.038;8.078;2024-01-30T08:05:47;46.65;;;28.08;;
23490;SDS011;14683;50.038;8.078;2024-01-30T08:08:48;43.83;;;27.75;;
23490;SDS011;14683;50.038;8.078;2024-01-30T08:11:49;39.30;;;25.80;;
23490;SDS011;14683;50.038;8.078;2024-01-30T08:14:50;42.83;;;27.17;;
23490;SDS011;14683;50.038;8.078;2024-01-30T08:17:51;45.75;;;26.60;;
23490;SDS011;14683;50.038;8.078;2024-01-30T08:20:58;53.85;;;31.10;;
23490;SDS011;14683;50.038;8.078;2024-01-30T08:23:59;60.10;;;35.28;;
23490;SDS011;14683;50.038;8.078;2024-01-30T08:27:01;45.58;;;30.33;;
23490;SDS011;14683;50.038;8.078;2024-01-30T08:30:04;33.97;;;22.30;;
23490;SDS011;14683;50.038;8.078;2024-01-30T08:33:06;33.17;;;22.42;;
23490;SDS011;14683;50.038;8.078;2024-01-30T08:36:08;30.05;;;21.20;;
23490;SDS011;14683;50.038;8.078;2024-01-30T08:39:09;36.33;;;23.52;;
23490;SDS011;14683;50.038;8.078;2024-01-30T08:42:10;38.33;;;24.70;;
23490;SDS011;14683;50.038;8.078;2024-01-30T08:45:11;35.58;;;23.88;;
23490;SDS011;14683;50.038;8.078;2024-01-30T08:48:12;32.38;;;22.98;;
23490;SDS011;14683;50.038;8.078;2024-01-30T08:51:13;34.72;;;23.42;;
23490;SDS011;14683;50.038;8.078;2024-01-30T08:54:16;36.53;;;22.90;;
23490;SDS011;14683;50.038;8.078;2024-01-30T08:57:17;32.67;;;22.38;;
23490;SDS011;14683;50.038;8.078;2024-01-30T09:00:18;30.95;;;21.83;;
23490;SDS011;14683;50.038;8.078;2024-01-30T09:03:19;30.98;;;21.27;;
23490;SDS011;14683;50.038;8.078;2024-01-30T09:06:20;32.42;;;22.27;;
23490;SDS011;14683;50.038;8.078;2024-01-30T09:09:22;33.15;;;23.42;;
23490;SDS011;14683;50.038;8.078;2024-01-30T09:12:23;33.60;;;22.73;;
23490;SDS011;14683;50.038;8.078;2024-01-30T09:15:24;38.13;;;23.75;;
23490;SDS011;14683;50.038;8.078;2024-01-30T09:18:25;42.88;;;26.17;;
23490;SDS011;14683;50.038;8.078;2024-01-30T09:21:26;39.55;;;24.23;;
23490;SDS011;14683;50.038;8.078;2024-01-30T09:24:27;36.72;;;24.52;;
23490;SDS011;14683;50.038;8.078;2024-01-30T09:27:29;37.15;;;25.58;;
23490;SDS011;14683;50.038;8.078;2024-01-30T09:30:30;35.35;;;25.25;;
23490;SDS011;14683;50.038;8.078;2024-01-30T09:33:31;33.65;;;23.75;;
23490;SDS011;14683;50.038;8.078;2024-01-30T09:36:32;37.55;;;24.88;;
23490;SDS011;14683;50.038;8.078;2024-01-30T09:39:33;36.30;;;24.63;;
23490;SDS011;14683;50.038;8.078;2024-01-30T09:42:35;32.28;;;24.17;;
23490;SDS011;14683;50.038;8.078;2024-01-30T09:45:36;36.75;;;24.05;;
23490;SDS011;14683;50.038;8.078;2024-01-30T09:48:39;38.40;;;25.30;;
23490;SDS011;14683;50.038;8.078;2024-01-30T09:51:42;33.00;;;24.10;;
23490;SDS011;14683;50.038;8.078;2024-01-30T09:54:44;36.78;;;25.98;;
23490;SDS011;14683;50.038;8.078;2024-01-30T09:57:46;30.27;;;23.15;;
23490;SDS011;14683;50.038;8.078;2024-01-30T10:00:47;37.28;;;24.85;;
23490;SDS011;14683;50.038;8.078;2024-01-30T10:03:50;45.55;;;33.03;;
23490;SDS011;14683;50.038;8.078;2024-01-30T10:06:52;49.17;;;35.05;;
23490;SDS011;14683;50.038;8.078;2024-01-30T10:09:54;41.03;;;29.23;;
23490;SDS011;14683;50.038;8.078;2024-01-30T10:12:57;41.40;;;29.33;;
23490;SDS011;14683;50.038;8.078;2024-01-30T10:15:58;47.60;;;31.88;;
23490;SDS011;14683;50.038;8.078;2024-01-30T10:19:00;40.38;;;28.25;;
23490;SDS011;14683;50.038;8.078;2024-01-30T10:22:01;33.72;;;24.83;;
23490;SDS011;14683;50.038;8.078;2024-01-30T10:25:02;40.63;;;26.05;;
23490;SDS011;14683;50.038;8.078;2024-01-30T10:28:03;35.67;;;25.70;;
23490;SDS011;14683;50.038;8.078;2024-01-30T10:31:05;36.08;;;25.65;;
23490;SDS011;14683;50.038;8.078;2024-01-30T10:34:06;34.53;;;25.40;;
23490;SDS011;14683;50.038;8.078;2024-01-30T10:37:08;35.30;;;26.05;;
23490;SDS011;14683;50.038;8.078;2024-01-30T10:40:18;32.22;;;24.10;;
23490;SDS011;14683;50.038;8.078;2024-01-30T10:43:21;34.60;;;24.42;;
23490;SDS011;14683;50.038;8.078;2024-01-30T10:46:23;29.17;;;23.35;;
23490;SDS011;14683;50.038;8.078;2024-01-30T10:49:28;36.42;;;26.83;;
23490;SDS011;14683;50.038;8.078;2024-01-30T10:52:30;40.15;;;26.42;;
23490;SDS011;14683;50.038;8.078;2024-01-30T10:55:32;40.88;;;26.48;;
23490;SDS011;14683;50.038;8.078;2024-01-30T10:58:34;37.60;;;26.25;;
23490;SDS011;14683;50.038;8.078;2024-01-30T11:01:35;41.88;;;27.42;;
23490;SDS011;14683;50.038;8.078;2024-01-30T11:04:37;38.80;;;26.60;;
23490;SDS011;14683;50.038;8.078;2024-01-30T11:07:42;38.83;;;28.65;;
23490;SDS011;14683;50.038;8.078;2024-01-30T11:10:46;40.90;;;27.73;;
23490;SDS011;14683;50.038;8.078;2024-01-30T11:13:48;40.85;;;27.67;;
23490;SDS011;14683;50.038;8.078;2024-01-30T11:16:56;37.03;;;26.23;;
23490;SDS011;14683;50.038;8.078;2024-01-30T11:19:59;37.00;;;26.02;;
23490;SDS011;14683;50.038;8.078;2024-01-30T11:23:00;38.22;;;26.70;;
23490;SDS011;14683;50.038;8.078;2024-01-30T11:26:06;41.60;;;28.35;;
23490;SDS011;14683;50.038;8.078;2024-01-30T11:29:08;37.67;;;27.23;;
23490;SDS011;14683;50.038;8.078;2024-01-30T11:32:10;34.88;;;26.02;;
23490;SDS011;14683;50.038;8.078;2024-01-30T11:35:11;36.47;;;26.75;;
23490;SDS011;14683;50.038;8.078;2024-01-30T11:38:15;38.05;;;27.75;;
23490;SDS011;14683;50.038;8.078;2024-01-30T11:41:17;35.42;;;27.35;;
23490;SDS011;14683;50.038;8.078;2024-01-30T11:44:19;37.85;;;27.23;;
23490;SDS011;14683;50.038;8.078;2024-01-30T11:47:24;36.80;;;28.13;;
23490;SDS011;14683;50.038;8.078;2024-01-30T11:50:25;35.15;;;26.42;;
23490;SDS011;14683;50.038;8.078;2024-01-30T11:53:26;38.50;;;28.30;;
23490;SDS011;14683;50.038;8.078;2024-01-30T11:56:28;35.17;;;26.65;;
23490;SDS011;14683;50.038;8.078;2024-01-30T11:59:29;42.05;;;29.67;;
23490;SDS011;14683;50.038;8.078;2024-01-30T12:02:30;42.08;;;29.85;;
23490;SDS011;14683;50.038;8.078;2024-01-30T12:05:31;42.13;;;29.38;;
23490;SDS011;14683;50.038;8.078;2024-01-30T12:08:32;40.15;;;30.05;;
23490;SDS011;14683;50.038;8.078;2024-01-30T12:11:43;45.15;;;29.98;;
23490;SDS011;14683;50.038;8.078;2024-01-30T12:14:47;40.47;;;29.95;;
23490;SDS011;14683;50.038;8.078;2024-01-30T12:17:48;42.08;;;30.13;;
23490;SDS011;14683;50.038;8.078;2024-01-30T12:20:59;36.45;;;27.63;;
23490;SDS011;14683;50.038;8.078;2024-01-30T12:24:00;35.72;;;25.73;;
23490;SDS011;14683;50.038;8.078;2024-01-30T12:27:01;32.35;;;24.85;;
23490;SDS011;14683;50.038;8.078;2024-01-30T12:30:06;33.08;;;25.15;;
23490;SDS011;14683;50.038;8.078;2024-01-30T12:33:08;30.55;;;23.23;;
23490;SDS011;14683;50.038;8.078;2024-01-30T12:36:11;31.48;;;24.15;;
23490;SDS011;14683;50.038;8.078;2024-01-30T12:39:12;31.80;;;24.42;;
23490;SDS011;14683;50.038;8.078;2024-01-30T12:42:15;36.65;;;25.73;;
23490;SDS011;14683;50.038;8.078;2024-01-30T12:45:16;32.20;;;24.52;;
23490;SDS011;14683;50.038;8.078;2024-01-30T12:48:22;31.70;;;23.85;;
23490;SDS011;14683;50.038;8.078;2024-01-30T12:51:23;33.78;;;24.95;;
23490;SDS011;14683;50.038;8.078;2024-01-30T12:54:24;33.72;;;24.17;;
23490;SDS011;14683;50.038;8.078;2024-01-30T12:57:25;34.40;;;25.15;;
23490;SDS011;14683;50.038;8.078;2024-01-30T13:00:26;31.90;;;25.05;;
23490;SDS011;14683;50.038;8.078;2024-01-30T13:03:27;34.22;;;24.42;;
23490;SDS011;14683;50.038;8.078;2024-01-30T13:06:28;30.10;;;23.30;;
23490;SDS011;14683;50.038;8.078;2024-01-30T13:09:30;29.75;;;23.25;;
23490;SDS011;14683;50.038;8.078;2024-01-30T13:12:32;18.88;;;14.32;;
23490;SDS011;14683;50.038;8.078;2024-01-30T13:15:34;29.98;;;24.13;;
23490;SDS011;14683;50.038;8.078;2024-01-30T13:18:35;35.45;;;24.58;;
23490;SDS011;14683;50.038;8.078;2024-01-30T13:21:36;34.15;;;25.35;;
23490;SDS011;14683;50.038;8.078;2024-01-30T13:24:38;29.75;;;22.77;;
23490;SDS011;14683;50.038;8.078;2024-01-30T13:27:39;30.92;;;23.70;;
23490;SDS011;14683;50.038;8.078;2024-01-30T13:30:40;28.63;;;22.90;;
23490;SDS011;14683;50.038;8.078;2024-01-30T13:33:41;30.63;;;24.45;;
23490;SDS011;14683;50.038;8.078;2024-01-30T13:36:42;32.40;;;24.02;;
23490;SDS011;14683;50.038;8.078;2024-01-30T13:39:44;31.63;;;23.80;;
23490;SDS011;14683;50.038;8.078;2024-01-30T13:42:45;28.95;;;23.15;;
23490;SDS011;14683;50.038;8.078;2024-01-30T13:45:46;29.42;;;22.40;;
23490;SDS011;14683;50.038;8.078;2024-01-30T13:48:47;25.35;;;22.08;;
23490;SDS011;14683;50.038;8.078;2024-01-30T13:51:48;27.15;;;21.85;;
23490;SDS011;14683;50.038;8.078;2024-01-30T13:54:49;27.73;;;21.65;;
23490;SDS011;14683;50.038;8.078;2024-01-30T13:57:51;27.48;;;22.35;;
23490;SDS011;14683;50.038;8.078;2024-01-30T14:00:52;27.92;;;22.30;;
23490;SDS011;14683;50.038;8.078;2024-01-30T14:03:53;31.98;;;23.17;;
23490;SDS011;14683;50.038;8.078;2024-01-30T14:06:54;30.08;;;22.27;;
23490;SDS011;14683;50.038;8.078;2024-01-30T14:09:55;33.55;;;24.08;;
23490;SDS011;14683;50.038;8.078;2024-01-30T14:12:57;31.42;;;24.23;;
23490;SDS011;14683;50.038;8.078;2024-01-30T14:15:58;31.48;;;22.63;;
23490;SDS011;14683;50.038;8.078;2024-01-30T14:18:59;28.90;;;23.08;;
23490;SDS011;14683;50.038;8.078;2024-01-30T14:22:00;34.13;;;24.15;;
23490;SDS011;14683;50.038;8.078;2024-01-30T14:25:01;32.67;;;23.73;;
23490;SDS011;14683;50.038;8.078;2024-01-30T14:28:04;31.00;;;24.42;;
23490;SDS011;14683;50.038;8.078;2024-01-30T14:31:06;34.33;;;24.17;;
23490;SDS011;14683;50.038;8.078;2024-01-30T14:34:07;29.33;;;23.63;;
23490;SDS011;14683;50.038;8.078;2024-01-30T14:37:09;31.35;;;24.33;;
23490;SDS011;14683;50.038;8.078;2024-01-30T14:40:10;37.67;;;25.27;;
23490;SDS011;14683;50.038;8.078;2024-01-30T14:43:11;37.25;;;26.35;;
23490;SDS011;14683;50.038;8.078;2024-01-30T14:46:12;39.35;;;26.67;;
23490;SDS011;14683;50.038;8.078;2024-01-30T14:49:14;39.90;;;27.60;;
23490;SDS011;14683;50.038;8.078;2024-01-30T14:52:16;34.78;;;26.33;;
23490;SDS011;14683;50.038;8.078;2024-01-30T14:55:17;36.65;;;26.67;;
23490;SDS011;14683;50.038;8.078;2024-01-30T14:58:19;39.90;;;28.40;;
23490;SDS011;14683;50.038;8.078;2024-01-30T15:01:20;36.33;;;26.38;;
23490;SDS011;14683;50.038;8.078;2024-01-30T15:04:22;37.45;;;28.05;;
23490;SDS011;14683;50.038;8.078;2024-01-30T15:07:23;35.08;;;27.10;;
23490;SDS011;14683;50.038;8.078;2024-01-30T15:10:25;41.55;;;29.27;;
23490;SDS011;14683;50.038;8.078;2024-01-30T15:13:26;40.08;;;27.63;;
23490;SDS011;14683;50.038;8.078;2024-01-30T15:16:27;38.90;;;28.20;;
23490;SDS011;14683;50.038;8.078;2024-01-30T15:19:29;37.25;;;27.33;;
23490;SDS011;14683;50.038;8.078;2024-01-30T15:22:30;39.70;;;27.02;;
23490;SDS011;14683;50.038;8.078;2024-01-30T15:25:31;36.17;;;27.27;;
23490;SDS011;14683;50.038;8.078;2024-01-30T15:28:36;35.67;;;26.42;;
23490;SDS011;14683;50.038;8.078;2024-01-30T15:31:38;37.90;;;26.52;;
23490;SDS011;14683;50.038;8.078;2024-01-30T15:34:39;41.03;;;26.75;;
23490;SDS011;14683;50.038;8.078;2024-01-30T15:37:41;43.40;;;27.13;;
23490;SDS011;14683;50.038;8.078;2024-01-30T15:40:42;37.95;;;26.40;;
23490;SDS011;14683;50.038;8.078;2024-01-30T15:43:43;34.85;;;25.90;;
23490;SDS011;14683;50.038;8.078;2024-01-30T15:46:44;33.22;;;24.55;;
23490;SDS011;14683;50.038;8.078;2024-01-30T15:49:46;34.63;;;25.55;;
23490;SDS011;14683;50.038;8.078;2024-01-30T15:52:47;38.72;;;27.63;;
23490;SDS011;14683;50.038;8.078;2024-01-30T15:55:48;43.13;;;26.98;;
23490;SDS011;14683;50.038;8.078;2024-01-30T15:58:49;41.53;;;27.90;;
23490;SDS011;14683;50.038;8.078;2024-01-30T16:01:52;38.35;;;28.15;;
23490;SDS011;14683;50.038;8.078;2024-01-30T16:04:53;40.25;;;28.67;;
23490;SDS011;14683;50.038;8.078;2024-01-30T16:07:54;43.72;;;27.10;;
23490;SDS011;14683;50.038;8.078;2024-01-30T16:10:56;43.47;;;29.38;;
23490;SDS011;14683;50.038;8.078;2024-01-30T16:13:57;49.72;;;32.60;;
23490;SDS011;14683;50.038;8.078;2024-01-30T16:16:58;51.00;;;32.92;;
23490;SDS011;14683;50.038;8.078;2024-01-30T16:19:59;56.60;;;34.72;;
23490;SDS011;14683;50.038;8.078;2024-01-30T16:23:00;49.97;;;33.30;;
23490;SDS011;14683;50.038;8.078;2024-01-30T16:26:01;52.83;;;33.20;;
23490;SDS011;14683;50.038;8.078;2024-01-30T16:29:02;51.08;;;33.50;;
23490;SDS011;14683;50.038;8.078;2024-01-30T16:32:04;45.08;;;30.52;;
23490;SDS011;14683;50.038;8.078;2024-01-30T16:35:05;44.40;;;30.50;;
23490;SDS011;14683;50.038;8.078;2024-01-30T16:38:06;44.83;;;29.98;;
23490;SDS011;14683;50.038;8.078;2024-01-30T16:41:08;37.83;;;27.40;;
23490;SDS011;14683;50.038;8.078;2024-01-30T16:44:09;40.92;;;27.63;;
23490;SDS011;14683;50.038;8.078;2024-01-30T16:47:10;38.70;;;27.27;;
23490;SDS011;14683;50.038;8.078;2024-01-30T16:50:11;38.85;;;27.27;;
23490;SDS011;14683;50.038;8.078;2024-01-30T16:53:12;33.25;;;25.73;;
23490;SDS011;14683;50.038;8.078;2024-01-30T16:56:14;36.22;;;26.63;;
23490;SDS011;14683;50.038;8.078;2024-01-30T16:59:15;34.28;;;24.75;;
23490;SDS011;14683;50.038;8.078;2024-01-30T17:02:17;35.35;;;24.17;;
23490;SDS011;14683;50.038;8.078;2024-01-30T17:05:18;34.38;;;24.85;;
23490;SDS011;14683;50.038;8.078;2024-01-30T17:08:22;33.33;;;23.70;;
23490;SDS011;14683;50.038;8.078;2024-01-30T17:11:23;35.17;;;24.95;;
23490;SDS011;14683;50.038;8.078;2024-01-30T17:14:24;34.75;;;24.75;;
23490;SDS011;14683;50.038;8.078;2024-01-30T17:17:26;35.70;;;24.75;;
23490;SDS011;14683;50.038;8.078;2024-01-30T17:20:27;31.15;;;22.67;;
23490;SDS011;14683;50.038;8.078;2024-01-30T17:23:28;35.30;;;26.25;;
23490;SDS011;14683;50.038;8.078;2024-01-30T17:26:29;41.13;;;27.15;;
23490;SDS011;14683;50.038;8.078;2024-01-30T17:29:31;38.67;;;26.40;;
23490;SDS011;14683;50.038;8.078;2024-01-30T17:32:32;35.17;;;25.70;;
23490;SDS011;14683;50.038;8.078;2024-01-30T17:35:33;33.83;;;25.55;;
23490;SDS011;14683;50.038;8.078;2024-01-30T17:38:34;40.03;;;28.70;;
23490;SDS011;14683;50.038;8.078;2024-01-30T17:41:35;36.67;;;26.23;;
23490;SDS011;14683;50.038;8.078;2024-01-30T17:44:37;38.60;;;26.98;;
23490;SDS011;14683;50.038;8.078;2024-01-30T17:47:43;37.05;;;27.73;;
23490;SDS011;14683;50.038;8.078;2024-01-30T17:50:44;41.15;;;26.85;;
23490;SDS011;14683;50.038;8.078;2024-01-30T17:53:45;39.05;;;28.02;;
23490;SDS011;14683;50.038;8.078;2024-01-30T17:56:47;48.00;;;31.02;;
23490;SDS011;14683;50.038;8.078;2024-01-30T17:59:48;53.13;;;34.97;;
23490;SDS011;14683;50.038;8.078;2024-01-30T18:02:49;50.55;;;33.00;;
23490;SDS011;14683;50.038;8.078;2024-01-30T18:05:52;51.00;;;33.83;;
23490;SDS011;14683;50.038;8.078;2024-01-30T18:08:55;45.60;;;30.90;;
23490;SDS011;14683;50.038;8.078;2024-01-30T18:12:05;42.65;;;31.08;;
23490;SDS011;14683;50.038;8.078;2024-01-30T18:15:07;43.90;;;29.52;;
23490;SDS011;14683;50.038;8.078;2024-01-30T18:18:08;46.03;;;32.40;;
23490;SDS011;14683;50.038;8.078;2024-01-30T18:21:12;45.90;;;31.02;;
23490;SDS011;14683;50.038;8.078;2024-01-30T18:24:15;43.22;;;31.08;;
23490;SDS011;14683;50.038;8.078;2024-01-30T18:27:17;44.08;;;29.15;;
23490;SDS011;14683;50.038;8.078;2024-01-30T18:30:18;38.80;;;29.38;;
23490;SDS011;14683;50.038;8.078;2024-01-30T18:33:19;44.47;;;30.08;;
23490;SDS011;14683;50.038;8.078;2024-01-30T18:36:21;39.47;;;28.88;;
23490;SDS011;14683;50.038;8.078;2024-01-30T18:39:22;40.17;;;29.73;;
23490;SDS011;14683;50.038;8.078;2024-01-30T18:42:24;41.50;;;29.77;;
23490;SDS011;14683;50.038;8.078;2024-01-30T18:45:25;38.60;;;27.92;;
23490;SDS011;14683;50.038;8.078;2024-01-30T18:48:26;39.42;;;29.20;;
23490;SDS011;14683;50.038;8.078;2024-01-30T18:51:27;39.47;;;28.98;;
23490;SDS011;14683;50.038;8.078;2024-01-30T18:54:29;42.63;;;29.92;;
23490;SDS011;14683;50.038;8.078;2024-01-30T18:57:30;41.60;;;29.67;;
23490;SDS011;14683;50.038;8.078;2024-01-30T19:00:34;37.65;;;28.05;;
23490;SDS011;14683;50.038;8.078;2024-01-30T19:03:36;45.58;;;30.27;;
23490;SDS011;14683;50.038;8.078;2024-01-30T19:06:38;42.20;;;29.23;;
23490;SDS011;14683;50.038;8.078;2024-01-30T19:09:39;40.78;;;28.73;;
23490;SDS011;14683;50.038;8.078;2024-01-30T19:12:40;42.70;;;29.30;;
23490;SDS011;14683;50.038;8.078;2024-01-30T19:15:43;39.90;;;28.45;;
23490;SDS011;14683;50.038;8.078;2024-01-30T19:18:44;37.95;;;27.42;;
23490;SDS011;14683;50.038;8.078;2024-01-30T19:21:46;35.92;;;27.23;;
23490;SDS011;14683;50.038;8.078;2024-01-30T19:24:48;38.90;;;28.73;;
23490;SDS011;14683;50.038;8.078;2024-01-30T19:27:49;39.58;;;28.27;;
23490;SDS011;14683;50.038;8.078;2024-01-30T19:30:51;42.42;;;31.55;;
23490;SDS011;14683;50.038;8.078;2024-01-30T19:33:52;44.90;;;31.67;;
23490;SDS011;14683;50.038;8.078;2024-01-30T19:36:53;43.63;;;30.73;;
23490;SDS011;14683;50.038;8.078;2024-01-30T19:39:54;46.83;;;30.27;;
23490;SDS011;14683;50.038;8.078;2024-01-30T19:42:55;47.75;;;31.90;;
23490;SDS011;14683;50.038;8.078;2024-01-30T19:45:57;45.33;;;31.50;;
23490;SDS011;14683;50.038;8.078;2024-01-30T19:48:58;39.22;;;28.75;;
23490;SDS011;14683;50.038;8.078;2024-01-30T19:51:59;37.70;;;26.05;;
23490;SDS011;14683;50.038;8.078;2024-01-30T19:55:04;28.98;;;22.00;;
23490;SDS011;14683;50.038;8.078;2024-01-30T19:58:06;32.53;;;24.25;;
23490;SDS011;14683;50.038;8.078;2024-01-30T20:01:08;38.28;;;26.52;;
23490;SDS011;14683;50.038;8.078;2024-01-30T20:04:09;38.40;;;27.25;;
23490;SDS011;14683;50.038;8.078;2024-01-30T20:07:10;36.70;;;27.15;;
23490;SDS011;14683;50.038;8.078;2024-01-30T20:10:13;38.28;;;27.85;;
23490;SDS011;14683;50.038;8.078;2024-01-30T20:13:14;38.03;;;27.67;;
23490;SDS011;14683;50.038;8.078;2024-01-30T20:16:15;31.92;;;25.23;;
23490;SDS011;14683;50.038;8.078;2024-01-30T20:19:17;36.80;;;26.83;;
23490;SDS011;14683;50.038;8.078;2024-01-30T20:22:18;39.38;;;26.38;;
23490;SDS011;14683;50.038;8.078;2024-01-30T20:25:20;34.38;;;25.75;;
23490;SDS011;14683;50.038;8.078;2024-01-30T20:28:21;32.97;;;24.90;;
23490;SDS011;14683;50.038;8.078;2024-01-30T20:31:22;33.92;;;26.48;;
23490;SDS011;14683;50.038;8.078;2024-01-30T20:34:24;34.53;;;25.80;;